Time;durP1;ratioP1;P1;durP2;ratioP2;P2;SDS_P1;SDS_P2;PMS_P1;PMS_P2;Temp;Humidity;BMP_temperature;BMP_pressure;BME280_temperature;BME280_humidity;BME280_pressure;Samples;Min_cycle;Max_cycle;Signal;HPM_P1;HPM_P2
2022/11/17 00:01:40;;;;;;;3.95;1.42;;;22.40;57.50;;;;;;6182145;23;20005;-69
2022/11/17 00:04:07;;;;;;;4.68;1.08;;;22.40;57.40;;;;;;6180243;23;20013;-69
2022/11/17 00:06:33;;;;;;;6.28;1.25;;;22.40;57.50;;;;;;6182123;23;20024;-69
2022/11/17 02:35:44;;;;;;;3.53;1.23;;;21.50;62.70;;;;;;6219909;23;20055;-72
2022/11/17 02:38:31;;;;;;;6.57;1.88;;;21.50;62.50;;;;;;6220145;23;20339;-71
2022/11/17 02:41:09;;;;;;;4.28;1.08;;;21.50;62.20;;;;;;6218605;23;20009;-72
2022/11/17 02:44:04;;;;;;;10.57;4.13;;;21.50;61.90;;;;;;6220494;23;20011;-71
2022/11/17 02:46:48;;;;;;;2.88;1.00;;;21.60;61.80;;;;;;6220327;23;20009;-73
2022/11/17 02:49:18;;;;;;;2.17;1.43;;;21.60;61.60;;;;;;6219234;23;20004;-74
2022/11/17 02:51:49;;;;;;;5.50;1.60;;;21.50;62.10;;;;;;6219950;23;20312;-73
2022/11/17 02:54:17;;;;;;;1.90;0.80;;;21.60;61.40;;;;;;6218938;23;20007;-71
2022/11/17 02:56:43;;;;;;;6.57;1.40;;;21.60;61.40;;;;;;6220156;23;20055;-71
2022/11/17 02:59:14;;;;;;;5.93;1.23;;;21.60;61.30;;;;;;6219453;23;20004;-72
2022/11/17 03:01:47;;;;;;;4.30;1.05;;;21.50;61.30;;;;;;6219066;23;20012;-72
2022/11/17 03:04:39;;;;;;;7.55;2.00;;;21.50;61.30;;;;;;6220414;23;20079;-71
2022/11/17 03:07:06;;;;;;;5.07;1.55;;;21.50;61.20;;;;;;6203433;23;20009;-71
2022/11/17 03:10:02;;;;;;;3.63;1.23;;;21.50;61.30;;;;;;6219736;23;20308;-71
2022/11/17 03:12:41;;;;;;;7.32;3.03;;;21.50;61.30;;;;;;6219843;23;20320;-72
2022/11/17 03:15:20;;;;;;;6.90;1.45;;;21.50;61.40;;;;;;6218787;23;20004;-72
2022/11/17 03:18:09;;;;;;;7.47;2.42;;;21.50;61.40;;;;;;6220601;23;20376;-73
2022/11/17 03:20:55;;;;;;;13.13;1.40;;;21.50;61.50;;;;;;6218961;23;20066;-74
2022/11/17 03:23:36;;;;;;;3.30;1.30;;;21.50;61.50;;;;;;6219032;23;20087;-73
2022/11/17 03:26:08;;;;;;;4.95;1.73;;;21.40;61.50;;;;;;6219555;23;20008;-74
2022/11/17 03:28:35;;;;;;;6.63;1.45;;;21.40;61.50;;;;;;6218980;23;20008;-74
2022/11/17 03:31:05;;;;;;;8.80;1.92;;;21.40;61.40;;;;;;6219666;23;20428;-73
2022/11/17 03:33:34;;;;;;;7.97;1.45;;;21.40;61.30;;;;;;6211176;23;20028;-73
2022/11/17 03:36:10;;;;;;;4.18;1.08;;;21.40;61.20;;;;;;6212369;23;20078;-74
2022/11/17 03:39:07;;;;;;;10.88;1.70;;;21.40;61.20;;;;;;6212829;23;20095;-74
2022/11/17 03:41:41;;;;;;;13.93;3.17;;;21.30;61.00;;;;;;6209733;23;20088;-71
2022/11/17 03:44:08;;;;;;;18.98;9.30;;;21.30;61.20;;;;;;6213098;23;20455;-72
2022/11/17 03:46:38;;;;;;;15.55;6.32;;;21.30;61.30;;;;;;6211619;23;20409;-69
2022/11/17 03:49:46;;;;;;;8.85;3.15;;;21.30;61.10;;;;;;6212522;23;20009;-72
2022/11/17 03:52:13;;;;;;;6.60;1.70;;;21.30;61.10;;;;;;6212524;23;20637;-74
2022/11/17 03:54:40;;;;;;;11.63;1.90;;;21.30;61.40;;;;;;6211164;23;20000;-73
2022/11/17 03:57:34;;;;;;;7.03;1.42;;;21.20;62.50;;;;;;6212334;23;20036;-73
2022/11/17 04:00:05;;;;;;;8.05;3.95;;;21.30;62.80;;;;;;6212908;23;20023;-75
2022/11/17 04:02:32;;;;;;;9.82;5.57;;;21.30;62.40;;;;;;6209840;23;20008;-76
2022/11/17 04:05:05;;;;;;;7.32;5.25;;;21.30;62.10;;;;;;6186327;23;20004;-73
2022/11/17 04:07:39;;;;;;;5.47;3.55;;;21.30;61.90;;;;;;6211770;23;20031;-75
2022/11/17 04:10:08;;;;;;;6.03;2.25;;;21.30;61.70;;;;;;6210801;23;20004;-77
2022/11/17 04:18:04;;;;;;;21.13;11.95;;;21.30;63.20;;;;;;6213285;23;20450;-79
2022/11/17 04:20:37;;;;;;;9.38;5.72;;;21.30;63.80;;;;;;6211449;23;20510;-76
2022/11/17 04:23:12;;;;;;;10.63;3.90;;;21.20;63.60;;;;;;6212666;23;20004;-71
2022/11/17 04:28:37;;;;;;;4.60;1.55;;;21.30;63.70;;;;;;6211336;23;20019;-71
2022/11/17 04:31:21;;;;;;;1.67;1.02;;;21.20;62.60;;;;;;6211610;23;20053;-71
2022/11/17 04:33:51;;;;;;;7.72;1.48;;;21.30;62.60;;;;;;6210667;23;20016;-71
2022/11/17 04:36:20;;;;;;;6.40;3.03;;;21.30;62.30;;;;;;6212507;23;20008;-71
2022/11/17 04:38:49;;;;;;;6.50;2.22;;;21.20;62.20;;;;;;6211798;23;20051;-70
2022/11/17 04:44:03;;;;;;;4.30;1.42;;;21.20;62.10;;;;;;6211767;23;20024;-75
2022/11/17 04:46:32;;;;;;;9.13;1.67;;;21.20;62.10;;;;;;6211221;23;20004;-75
2022/11/17 04:49:00;;;;;;;2.85;1.27;;;21.20;62.10;;;;;;6212439;23;20075;-77
2022/11/17 04:51:28;;;;;;;4.55;2.10;;;21.30;62.20;;;;;;6210912;23;20439;-75
2022/11/17 04:53:54;;;;;;;8.38;1.80;;;21.20;62.10;;;;;;6212379;23;20439;-74
2022/11/17 04:56:23;;;;;;;15.23;2.08;;;21.20;62.10;;;;;;6211857;23;20009;-76
2022/11/17 04:58:50;;;;;;;10.07;2.45;;;21.20;62.40;;;;;;6211240;23;19992;-73
2022/11/17 05:01:17;;;;;;;16.88;2.63;;;21.20;62.50;;;;;;6212332;23;20016;-74
2022/11/17 05:03:52;;;;;;;4.80;1.50;;;21.30;62.70;;;;;;6211666;23;19997;-75
2022/11/17 05:06:32;;;;;;;7.25;1.65;;;21.20;62.70;;;;;;6212099;23;20430;-75
2022/11/17 05:09:02;;;;;;;7.57;1.80;;;21.30;63.00;;;;;;6211339;23;20009;-74
2022/11/17 05:14:17;;;;;;;6.32;1.38;;;21.30;62.80;;;;;;6212833;23;20008;-75
2022/11/17 05:19:30;;;;;;;24.77;3.50;;;21.30;62.60;;;;;;6212277;23;20366;-75
2022/11/17 05:21:56;;;;;;;9.38;1.70;;;21.40;62.40;;;;;;6210512;23;20012;-76
2022/11/17 05:24:23;;;;;;;16.55;4.45;;;21.40;62.30;;;;;;6212011;23;20009;-74
2022/11/17 05:26:50;;;;;;;14.25;2.25;;;21.40;61.90;;;;;;6211492;23;20055;-77
2022/11/17 05:29:18;;;;;;;7.38;2.40;;;21.40;61.50;;;;;;6210916;23;20071;-75
2022/11/17 05:31:46;;;;;;;15.13;3.67;;;21.40;61.10;;;;;;6211619;23;20004;-73
2022/11/17 05:34:14;;;;;;;12.27;2.08;;;21.40;60.70;;;;;;6210220;23;20013;-71
2022/11/17 05:36:41;;;;;;;3.90;1.20;;;21.40;60.40;;;;;;6211853;23;20001;-76
2022/11/17 05:39:09;;;;;;;5.82;1.42;;;21.50;60.30;;;;;;6210405;23;20344;-76
2022/11/17 05:41:38;;;;;;;3.53;0.93;;;21.50;60.00;;;;;;6211532;23;20013;-75
2022/11/17 05:44:05;;;;;;;4.13;1.48;;;21.50;59.90;;;;;;6211689;23;20021;-71
2022/11/17 05:46:31;;;;;;;8.60;2.20;;;21.50;59.80;;;;;;6210744;23;20336;-73
2022/11/17 05:48:58;;;;;;;6.47;1.13;;;21.60;59.80;;;;;;6211701;23;20011;-72
2022/11/17 05:51:25;;;;;;;5.85;1.80;;;21.50;59.60;;;;;;6211211;23;20442;-75
2022/11/17 05:53:52;;;;;;;5.90;1.73;;;21.60;59.50;;;;;;6211401;23;20064;-77
2022/11/17 05:56:27;;;;;;;7.68;1.38;;;21.60;59.30;;;;;;6210364;23;20009;-74
2022/11/17 05:59:08;;;;;;;2.53;1.05;;;21.60;59.20;;;;;;6212113;23;20004;-72
2022/11/17 06:01:41;;;;;;;5.78;1.80;;;21.70;59.20;;;;;;6211464;23;20020;-76
2022/11/17 06:04:08;;;;;;;2.65;1.40;;;21.70;59.00;;;;;;6210839;23;20489;-74
2022/11/17 06:06:36;;;;;;;4.28;1.17;;;21.70;58.80;;;;;;6211761;23;20000;-74
2022/11/17 06:09:03;;;;;;;3.25;1.13;;;21.70;58.70;;;;;;6210352;23;20009;-77
2022/11/17 06:11:30;;;;;;;2.75;1.27;;;21.80;58.60;;;;;;6211854;23;20016;-74
2022/11/17 06:13:56;;;;;;;6.32;2.05;;;21.80;58.60;;;;;;6210625;23;19997;-76
2022/11/17 06:16:27;;;;;;;5.60;1.38;;;21.80;58.30;;;;;;6211522;23;20346;-76
2022/11/17 06:19:01;;;;;;;2.83;1.13;;;21.90;58.10;;;;;;6211597;23;20001;-76
2022/11/17 06:21:27;;;;;;;2.85;1.10;;;21.90;57.90;;;;;;6210585;23;20013;-78
2022/11/17 06:23:54;;;;;;;2.10;1.13;;;21.90;57.60;;;;;;6211899;23;20059;-76
2022/11/17 06:26:21;;;;;;;4.15;1.08;;;22.00;57.40;;;;;;6210379;23;20087;-77
2022/11/17 06:28:50;;;;;;;3.22;0.85;;;22.00;57.10;;;;;;6212400;23;20067;-76
2022/11/17 06:31:17;;;;;;;8.38;1.70;;;22.00;56.90;;;;;;6210806;23;20008;-77
2022/11/17 06:33:44;;;;;;;2.03;0.77;;;22.10;56.80;;;;;;6211393;23;20128;-75
2022/11/17 06:36:11;;;;;;;3.97;1.40;;;22.00;56.60;;;;;;6211101;23;20325;-78
2022/11/17 06:38:37;;;;;;;4.88;0.85;;;22.10;56.60;;;;;;6210886;23;20004;-76
2022/11/17 06:41:05;;;;;;;4.18;1.17;;;22.10;56.40;;;;;;6211633;23;20051;-78
2022/11/17 06:43:32;;;;;;;5.40;1.30;;;22.20;56.30;;;;;;6210166;23;20004;-78
2022/11/17 06:46:03;;;;;;;3.10;1.33;;;22.20;56.10;;;;;;6211743;23;20478;-77
2022/11/17 06:48:34;;;;;;;3.70;1.52;;;22.20;56.00;;;;;;6211028;23;20004;-77
2022/11/17 06:51:04;;;;;;;6.05;0.80;;;22.30;56.00;;;;;;6211403;23;20012;-72
2022/11/17 06:53:31;;;;;;;3.13;0.90;;;22.20;55.90;;;;;;6210963;23;20011;-74
2022/11/17 06:56:08;;;;;;;6.18;1.13;;;22.30;55.90;;;;;;6210236;23;20036;-75
2022/11/17 06:58:40;;;;;;;10.20;1.35;;;22.30;55.80;;;;;;6211824;23;20005;-71
2022/11/17 07:01:09;;;;;;;10.05;1.60;;;22.40;55.80;;;;;;6209994;23;20024;-78
2022/11/17 07:03:37;;;;;;;1.75;1.10;;;22.40;55.60;;;;;;6211123;23;20004;-77
2022/11/17 07:06:05;;;;;;;4.82;1.13;;;22.40;55.40;;;;;;6210853;23;20412;-72
2022/11/17 07:08:33;;;;;;;4.13;1.15;;;22.40;55.30;;;;;;6212572;23;20042;-76
2022/11/17 07:11:10;;;;;;;6.80;1.90;;;22.40;55.30;;;;;;6213415;23;20424;-77
2022/11/17 07:13:37;;;;;;;3.63;0.90;;;22.50;55.30;;;;;;6212174;23;20447;-79
2022/11/17 07:16:05;;;;;;;4.93;1.17;;;22.50;55.20;;;;;;6213359;23;20005;-79
2022/11/17 07:18:33;;;;;;;3.58;0.90;;;22.60;55.20;;;;;;6212037;23;20424;-75
2022/11/17 07:21:05;;;;;;;16.70;3.30;;;22.60;55.10;;;;;;6213511;23;20020;-77
2022/11/17 07:23:33;;;;;;;11.40;1.02;;;22.60;55.00;;;;;;6212195;23;20036;-72
2022/11/17 07:26:00;;;;;;;9.35;1.60;;;22.60;55.00;;;;;;6212260;23;20001;-77
2022/11/17 07:28:28;;;;;;;3.35;0.88;;;22.70;54.70;;;;;;6213400;23;20001;-73
2022/11/17 07:30:55;;;;;;;6.60;1.33;;;22.60;54.40;;;;;;6211882;23;20357;-73
2022/11/17 07:33:22;;;;;;;11.77;2.33;;;22.70;54.30;;;;;;6212733;23;20028;-71
2022/11/17 07:35:49;;;;;;;4.57;1.27;;;22.70;54.00;;;;;;6211790;23;20000;-71
2022/11/17 07:38:16;;;;;;;2.17;1.10;;;22.80;53.80;;;;;;6213018;23;20015;-70
2022/11/17 07:40:42;;;;;;;2.25;0.95;;;22.80;53.80;;;;;;6185197;23;20112;-72
2022/11/17 07:43:09;;;;;;;2.40;1.05;;;22.80;53.80;;;;;;6212323;23;20455;-72
2022/11/17 07:45:36;;;;;;;3.42;0.63;;;22.80;53.80;;;;;;6213124;23;20027;-73
2022/11/17 07:48:04;;;;;;;3.55;1.20;;;22.90;53.90;;;;;;6211408;23;20447;-76
2022/11/17 07:50:32;;;;;;;3.00;1.00;;;22.90;53.90;;;;;;6213249;23;20043;-73
2022/11/17 07:52:58;;;;;;;22.77;3.38;;;23.00;53.80;;;;;;6211669;23;20001;-75
2022/11/17 07:55:25;;;;;;;12.00;2.30;;;23.00;53.80;;;;;;6212474;23;20009;-69
2022/11/17 07:58:00;;;;;;;7.40;1.90;;;23.10;54.20;;;;;;6211597;23;20320;-73
2022/11/17 08:00:29;;;;;;;10.07;1.55;;;23.10;54.30;;;;;;6212488;23;20023;-76
2022/11/17 13:40:22;;;;;;;3.03;1.27;;;26.40;47.00;;;;;;6182014;23;20025;-67
2022/11/17 13:42:52;;;;;;;5.03;1.00;;;26.40;47.20;;;;;;6181614;23;20088;-69
2022/11/17 13:45:18;;;;;;;6.63;0.73;;;26.40;47.20;;;;;;6180678;23;20060;-67
2022/11/17 13:47:47;;;;;;;1.00;0.90;;;26.40;47.10;;;;;;6181795;23;20075;-70
2022/11/17 13:50:33;;;;;;;16.52;2.20;;;26.40;47.20;;;;;;6180516;23;20133;-69
2022/11/17 13:53:08;;;;;;;9.20;0.77;;;26.30;47.10;;;;;;6181741;23;20076;-68
2022/11/17 13:55:35;;;;;;;5.05;1.15;;;26.30;47.10;;;;;;6181447;23;20028;-66
2022/11/17 13:58:01;;;;;;;5.78;1.02;;;26.30;47.20;;;;;;6180917;23;20016;-67
2022/11/17 14:00:30;;;;;;;4.05;0.85;;;26.30;47.30;;;;;;6181615;23;20005;-66
2022/11/17 14:02:58;;;;;;;2.78;1.00;;;26.30;47.10;;;;;;6180422;23;20009;-67
2022/11/17 14:05:27;;;;;;;10.15;1.27;;;26.30;47.00;;;;;;6181275;23;20388;-67
2022/11/17 14:07:56;;;;;;;6.53;1.05;;;26.30;47.00;;;;;;6179838;23;20015;-69
2022/11/17 14:10:31;;;;;;;8.35;2.25;;;26.30;46.90;;;;;;6182180;23;20067;-70
2022/11/17 14:13:01;;;;;;;5.00;0.90;;;26.30;46.80;;;;;;6154280;23;20060;-68
2022/11/17 14:15:30;;;;;;;26.45;2.90;;;26.30;46.80;;;;;;6180997;23;20005;-67
2022/11/17 14:18:00;;;;;;;12.85;1.75;;;26.30;46.80;;;;;;6181863;23;20005;-67
2022/11/17 14:20:35;;;;;;;13.60;1.92;;;26.30;47.90;;;;;;6180156;23;20384;-67
2022/11/17 14:23:17;;;;;;;15.30;2.17;;;26.30;47.50;;;;;;6155219;23;20012;-67
2022/11/17 14:25:48;;;;;;;10.98;1.70;;;26.30;47.70;;;;;;6180626;23;20314;-68
2022/11/17 14:28:22;;;;;;;2.97;0.68;;;26.30;47.40;;;;;;6181238;23;20040;-69
2022/11/17 14:30:57;;;;;;;2.85;1.20;;;26.30;47.00;;;;;;6181295;23;20096;-68
2022/11/17 14:33:24;;;;;;;3.85;0.80;;;26.30;46.90;;;;;;6180120;23;19993;-67
2022/11/17 14:35:54;;;;;;;8.20;1.58;;;26.20;46.80;;;;;;6155179;23;20091;-69
2022/11/17 14:38:22;;;;;;;21.23;2.50;;;26.10;46.70;;;;;;6186637;23;20012;-70
2022/11/17 14:40:52;;;;;;;3.30;1.10;;;26.10;46.90;;;;;;6211573;23;20071;-72
2022/11/17 14:43:20;;;;;;;22.15;2.47;;;26.10;47.00;;;;;;6210618;23;19996;-67
2022/11/17 14:45:47;;;;;;;12.63;1.15;;;26.00;47.30;;;;;;6210774;23;20103;-72
2022/11/17 14:48:16;;;;;;;30.85;1.63;;;26.00;47.50;;;;;;6210341;23;20020;-70
2022/11/17 14:50:42;;;;;;;8.93;1.33;;;25.90;47.40;;;;;;6210878;23;20118;-70
2022/11/17 14:53:09;;;;;;;3.58;1.27;;;25.90;47.20;;;;;;6211927;23;20004;-71
2022/11/17 14:55:35;;;;;;;5.13;1.10;;;25.90;47.10;;;;;;6212419;23;20000;-69
2022/11/17 14:58:02;;;;;;;4.15;1.30;;;25.80;47.10;;;;;;6213662;23;20009;-68
2022/11/17 15:00:28;;;;;;;18.00;2.35;;;25.70;47.10;;;;;;6212090;23;20042;-71
2022/11/17 15:02:55;;;;;;;2.47;1.63;;;25.70;47.20;;;;;;6213103;23;20424;-68
2022/11/17 15:05:21;;;;;;;7.25;2.00;;;25.70;47.10;;;;;;6211747;23;20012;-67
2022/11/17 15:07:48;;;;;;;3.33;1.48;;;25.70;47.20;;;;;;6213191;23;20436;-68
2022/11/17 15:10:15;;;;;;;3.53;1.33;;;25.70;47.30;;;;;;6212688;23;20072;-72
2022/11/17 15:12:41;;;;;;;11.75;2.20;;;25.60;47.20;;;;;;6212533;23;20004;-71
2022/11/17 15:15:08;;;;;;;0.93;0.52;;;25.60;47.30;;;;;;6213173;23;20075;-70
2022/11/17 15:17:34;;;;;;;2.90;1.60;;;25.50;47.40;;;;;;6212128;23;20042;-69
2022/11/17 15:20:01;;;;;;;4.90;1.40;;;25.50;47.50;;;;;;6211650;23;20005;-68
2022/11/17 15:22:28;;;;;;;4.32;1.30;;;25.40;47.50;;;;;;6209696;23;20013;-67
2022/11/17 15:24:54;;;;;;;3.65;1.00;;;25.50;47.70;;;;;;6211491;23;20004;-66
2022/11/17 15:27:21;;;;;;;3.50;1.63;;;25.50;47.70;;;;;;6209828;23;20348;-68
2022/11/17 15:29:47;;;;;;;8.02;1.85;;;25.50;47.70;;;;;;6212195;23;20008;-66
2022/11/17 15:32:14;;;;;;;4.07;2.25;;;25.40;47.80;;;;;;6211618;23;20008;-67
2022/11/17 15:34:40;;;;;;;12.00;3.05;;;25.40;47.80;;;;;;6211480;23;20074;-66
2022/11/17 15:37:07;;;;;;;3.97;1.15;;;25.30;48.60;;;;;;6205894;23;20008;-69
2022/11/17 15:39:34;;;;;;;13.18;3.88;;;25.30;49.10;;;;;;6208103;23;20435;-70
2022/11/17 15:42:00;;;;;;;10.50;2.95;;;25.30;49.00;;;;;;6211278;23;20055;-66
2022/11/17 15:44:27;;;;;;;2.33;1.08;;;25.20;48.60;;;;;;6210603;23;20042;-68
2022/11/17 15:46:54;;;;;;;4.55;1.38;;;25.20;48.40;;;;;;6210769;23;20008;-67
2022/11/17 15:49:20;;;;;;;2.05;0.80;;;25.20;48.20;;;;;;6210207;23;20427;-65
2022/11/17 15:51:50;;;;;;;6.10;0.88;;;25.20;48.30;;;;;;6210120;23;20036;-67
2022/11/17 15:54:16;;;;;;;2.13;1.27;;;25.20;48.40;;;;;;6210420;23;20008;-68
2022/11/17 15:56:43;;;;;;;4.53;0.90;;;25.20;48.40;;;;;;6209224;23;20036;-69
2022/11/17 15:59:10;;;;;;;2.78;0.60;;;25.10;48.40;;;;;;6184067;23;20001;-68
2022/11/17 16:01:38;;;;;;;14.32;2.15;;;25.10;48.40;;;;;;6207302;23;20638;-70
2022/11/17 18:19:22;;;;;;;9.00;3.85;;;23.20;53.10;;;;;;5058587;27;20523;-73
2022/11/17 18:21:49;;;;;;;5.05;2.05;;;23.30;55.00;;;;;;5059649;28;20457;-74
2022/11/17 18:24:19;;;;;;;7.45;1.77;;;23.40;54.40;;;;;;5057551;28;20384;-74
2022/11/17 18:26:45;;;;;;;6.57;1.50;;;23.40;54.40;;;;;;5057923;28;20056;-73
2022/11/17 18:29:15;;;;;;;2.40;1.00;;;23.40;54.20;;;;;;5058742;28;20044;-73
2022/11/17 18:31:41;;;;;;;1.25;1.13;;;23.40;54.00;;;;;;5049909;28;20025;-73
2022/11/17 18:34:18;;;;;;;2.60;1.05;;;23.40;54.00;;;;;;5061229;28;20475;-74
2022/11/17 18:36:44;;;;;;;3.95;0.93;;;23.40;53.80;;;;;;5062390;28;20041;-74
2022/11/17 18:39:50;;;;;;;4.82;0.93;;;23.40;53.70;;;;;;5057711;28;20107;-74
2022/11/17 18:42:17;;;;;;;3.88;0.82;;;23.40;53.60;;;;;;5062192;28;20025;-74
2022/11/17 18:44:43;;;;;;;1.05;0.68;;;23.40;53.60;;;;;;5061516;28;20036;-74
2022/11/17 18:47:10;;;;;;;1.77;1.15;;;23.30;53.50;;;;;;5060905;28;20024;-73
2022/11/17 18:49:36;;;;;;;7.72;2.03;;;23.30;53.60;;;;;;5069149;28;20020;-73
2022/11/17 18:52:03;;;;;;;5.13;1.30;;;23.30;53.50;;;;;;5056379;28;20414;-73
2022/11/17 18:54:29;;;;;;;4.10;0.90;;;23.30;53.50;;;;;;5064275;28;20020;-73
2022/11/17 18:56:56;;;;;;;4.57;0.77;;;23.30;53.40;;;;;;5066185;28;20075;-73
2022/11/17 18:59:22;;;;;;;5.45;1.10;;;23.30;53.40;;;;;;5064695;28;20063;-73
2022/11/17 19:01:49;;;;;;;13.50;7.35;;;23.30;53.50;;;;;;5061656;28;20699;-73
2022/11/17 19:04:17;;;;;;;15.30;10.82;;;23.30;53.90;;;;;;5066598;28;20024;-73
2022/11/17 19:06:43;;;;;;;19.95;12.48;;;23.30;54.40;;;;;;5068782;28;20016;-72
2022/11/17 19:09:10;;;;;;;35.15;12.20;;;23.30;55.00;;;;;;5067256;28;20039;-73
2022/11/17 19:11:37;;;;;;;12.02;7.55;;;23.30;55.40;;;;;;5066039;28;20027;-73
2022/11/17 19:14:04;;;;;;;9.00;6.53;;;23.30;55.60;;;;;;5062537;28;20079;-74
2022/11/17 19:16:31;;;;;;;8.82;2.70;;;23.30;55.10;;;;;;5059535;28;20071;-74
2022/11/17 19:18:58;;;;;;;2.30;1.85;;;23.20;54.60;;;;;;5057924;28;20049;-74
2022/11/17 19:21:28;;;;;;;5.32;1.42;;;23.20;54.40;;;;;;5052617;28;20071;-73
2022/11/17 19:23:57;;;;;;;5.72;1.30;;;23.10;54.10;;;;;;5059563;28;20131;-73
2022/11/17 19:26:26;;;;;;;2.53;1.35;;;23.10;54.20;;;;;;5049744;28;20021;-73
2022/11/17 19:28:57;;;;;;;4.75;0.93;;;23.10;54.40;;;;;;5055756;28;20482;-73
2022/11/17 19:31:25;;;;;;;5.03;1.48;;;23.10;54.50;;;;;;5052399;28;20068;-73
2022/11/17 19:33:52;;;;;;;1.58;0.80;;;23.10;54.30;;;;;;5061012;28;20013;-73
2022/11/17 19:36:21;;;;;;;4.18;0.73;;;23.00;54.10;;;;;;5051269;28;20040;-73
2022/11/17 19:38:49;;;;;;;4.22;1.42;;;23.00;53.90;;;;;;5054418;28;20077;-74
2022/11/17 19:41:19;;;;;;;3.47;0.63;;;23.00;53.80;;;;;;5054347;28;20013;-73
2022/11/17 19:43:45;;;;;;;3.42;0.65;;;23.00;54.30;;;;;;5052593;28;20078;-73
2022/11/17 19:46:14;;;;;;;2.03;0.98;;;23.00;53.60;;;;;;5055739;28;20059;-74
2022/11/17 19:48:42;;;;;;;5.65;1.10;;;22.90;53.40;;;;;;5053780;28;20082;-74
2022/11/17 19:51:23;;;;;;;2.50;1.02;;;22.90;53.40;;;;;;5051243;28;20378;-74
2022/11/17 19:53:52;;;;;;;1.95;0.75;;;22.90;53.60;;;;;;5055587;28;20020;-75
2022/11/17 19:56:19;;;;;;;2.40;0.95;;;22.90;53.80;;;;;;5050168;28;20071;-74
2022/11/17 19:58:47;;;;;;;3.40;1.05;;;22.90;54.00;;;;;;5049952;28;20028;-74
2022/11/17 20:01:22;;;;;;;2.53;1.20;;;22.90;54.00;;;;;;5049530;28;20025;-75
2022/11/17 20:03:49;;;;;;;2.35;0.93;;;22.90;54.00;;;;;;5057378;28;20055;-74
2022/11/17 20:06:21;;;;;;;2.28;1.35;;;22.90;54.00;;;;;;5046447;28;20024;-75
2022/11/17 20:08:48;;;;;;;3.00;1.08;;;22.80;54.00;;;;;;5050505;28;20113;-73
2022/11/17 20:11:16;;;;;;;2.47;1.33;;;22.80;54.10;;;;;;5049637;28;20103;-73
2022/11/17 20:13:43;;;;;;;2.67;1.92;;;22.80;54.00;;;;;;5052302;28;20094;-73
2022/11/17 20:16:25;;;;;;;12.07;3.30;;;22.80;54.00;;;;;;5051230;28;20484;-73
2022/11/17 20:18:54;;;;;;;2.45;1.23;;;22.80;54.00;;;;;;5047406;28;20048;-73
2022/11/17 20:21:20;;;;;;;5.03;1.48;;;22.80;54.40;;;;;;5045651;28;20017;-74
2022/11/17 20:23:47;;;;;;;2.50;1.33;;;22.70;54.30;;;;;;5058538;28;20020;-73
2022/11/17 20:26:22;;;;;;;3.80;1.63;;;22.70;54.30;;;;;;5055096;28;20115;-73
2022/11/17 20:28:49;;;;;;;4.07;2.45;;;22.70;54.40;;;;;;5047475;28;20116;-73
2022/11/17 20:31:20;;;;;;;3.70;0.80;;;22.70;54.40;;;;;;5052414;28;20108;-73
2022/11/17 20:33:47;;;;;;;5.28;1.65;;;22.70;54.40;;;;;;5055721;28;20024;-74
2022/11/17 20:36:20;;;;;;;4.60;1.08;;;22.70;54.50;;;;;;5052243;28;20021;-73
2022/11/17 20:38:59;;;;;;;3.03;0.85;;;22.70;54.60;;;;;;5061280;28;20040;-74
2022/11/17 20:41:26;;;;;;;3.97;1.33;;;22.70;54.50;;;;;;5050567;28;20037;-74
2022/11/17 20:43:54;;;;;;;2.30;1.20;;;22.70;54.60;;;;;;5051027;28;20021;-74
2022/11/17 20:46:22;;;;;;;2.35;2.15;;;22.60;54.60;;;;;;5056095;28;20075;-74
2022/11/17 20:48:48;;;;;;;3.85;1.00;;;22.60;54.70;;;;;;5052376;28;20110;-74
2022/11/17 20:51:17;;;;;;;9.05;1.80;;;22.60;54.70;;;;;;5047726;28;20032;-74
2022/11/17 20:53:44;;;;;;;14.48;1.67;;;22.60;54.80;;;;;;5062239;28;20021;-73
2022/11/17 20:56:12;;;;;;;3.67;1.10;;;22.60;54.80;;;;;;5048394;28;20017;-73
2022/11/17 20:58:39;;;;;;;3.50;0.90;;;22.60;54.80;;;;;;5057425;28;20033;-73
2022/11/17 21:01:16;;;;;;;1.42;0.57;;;22.60;54.80;;;;;;5057045;28;20035;-73
2022/11/17 21:03:44;;;;;;;1.65;0.93;;;22.60;54.80;;;;;;5055665;28;20029;-73
2022/11/17 21:06:11;;;;;;;15.48;1.67;;;22.60;54.80;;;;;;5050036;28;20534;-73
2022/11/17 21:08:39;;;;;;;12.15;1.20;;;22.60;54.90;;;;;;5052769;28;20025;-72
2022/11/17 21:11:55;;;;;;;3.70;0.80;;;22.60;54.90;;;;;;5052641;28;20052;-73
2022/11/17 21:14:02;;;;;;;3.10;1.00;;;22.60;54.80;;;;;;5055261;28;20060;-73
2022/11/17 21:16:29;;;;;;;1.83;0.80;;;22.50;54.80;;;;;;5056358;28;20357;-73
2022/11/17 21:18:55;;;;;;;0.70;0.57;;;22.50;54.80;;;;;;5049968;28;20131;-72
2022/11/17 21:21:22;;;;;;;3.35;0.60;;;22.50;54.80;;;;;;5057453;28;20031;-72
2022/11/17 21:23:55;;;;;;;1.65;0.80;;;22.50;54.80;;;;;;5056616;28;20460;-73
2022/11/17 21:26:22;;;;;;;1.08;0.55;;;22.50;54.90;;;;;;5046842;28;20025;-73
2022/11/17 21:28:49;;;;;;;2.70;0.70;;;22.40;54.80;;;;;;5055939;28;20096;-73
2022/11/17 21:31:18;;;;;;;2.75;0.50;;;22.40;54.90;;;;;;5059305;28;20048;-73
2022/11/17 21:33:45;;;;;;;6.60;1.70;;;22.40;55.00;;;;;;5051630;28;20020;-74
2022/11/17 21:36:16;;;;;;;0.90;0.60;;;22.40;55.10;;;;;;5050146;28;20534;-74
2022/11/17 21:38:45;;;;;;;4.18;0.95;;;22.30;55.10;;;;;;5046360;28;20025;-74
2022/11/17 21:41:14;;;;;;;2.65;0.70;;;22.30;55.20;;;;;;5055695;28;20025;-74
2022/11/17 21:43:42;;;;;;;1.88;0.70;;;22.40;55.30;;;;;;5050108;28;20031;-74
2022/11/17 21:46:19;;;;;;;1.70;0.95;;;22.30;55.20;;;;;;5047581;28;20029;-74
2022/11/17 21:48:46;;;;;;;1.70;0.60;;;22.30;55.30;;;;;;5049582;28;20021;-75
2022/11/17 21:51:33;;;;;;;2.15;0.60;;;22.30;55.20;;;;;;5055483;28;20021;-74
2022/11/17 21:54:02;;;;;;;3.42;1.20;;;22.30;55.30;;;;;;5056133;28;20025;-74
2022/11/17 21:56:30;;;;;;;1.92;1.02;;;22.30;55.40;;;;;;5052461;28;20051;-74
2022/11/17 21:59:11;;;;;;;1.45;0.60;;;22.20;55.40;;;;;;5047751;28;20033;-74
2022/11/17 22:01:38;;;;;;;3.47;1.40;;;22.20;55.40;;;;;;5043488;28;20044;-74
2022/11/17 22:04:05;;;;;;;3.15;0.95;;;22.20;55.40;;;;;;5049206;28;20493;-74
2022/11/17 22:06:31;;;;;;;3.97;1.23;;;22.20;55.50;;;;;;5049422;28;20048;-74
2022/11/17 22:08:58;;;;;;;4.22;1.30;;;22.20;55.70;;;;;;5046287;28;20099;-74
2022/11/17 22:11:33;;;;;;;4.32;1.50;;;22.20;55.70;;;;;;5044213;28;20499;-74
2022/11/17 22:14:10;;;;;;;;;;;22.20;55.90;;;;;;5046882;28;20025;-74
2022/11/17 22:16:39;;;;;;;5.30;2.05;;;22.10;56.00;;;;;;5049022;28;20367;-73
2022/11/17 22:19:07;;;;;;;4.95;0.90;;;22.10;56.20;;;;;;5051250;28;20104;-73
2022/11/17 22:21:35;;;;;;;4.47;1.35;;;22.10;56.30;;;;;;5049714;28;20036;-73
